Time;durP1;ratioP1;P1;durP2;ratioP2;P2;SDS_P1;SDS_P2;PMS_P1;PMS_P2;Temp;Humidity;BMP_temperature;BMP_pressure;BME280_temperature;BME280_humidity;BME280_pressure;Samples;Min_cycle;Max_cycle;Signal;HPM_P1;HPM_P2
2021/08/01 00:04:50;;;;;;;7.38;4.78;;;;;;;;;;10458467;28;20485;-84
2021/08/01 00:09:57;;;;;;;8.35;4.95;;;;;;;;;;10458361;28;20049;-84
2021/08/01 00:14:58;;;;;;;8.27;5.28;;;;;;;;;;10460974;28;20542;-84
2021/08/01 00:19:58;;;;;;;7.15;5.25;;;;;;;;;;10461830;28;20116;-85
2021/08/01 00:25:00;;;;;;;6.53;5.30;;;;;;;;;;10460417;28;20514;-85
2021/08/01 00:30:02;;;;;;;8.52;5.78;;;;;;;;;;10460955;28;20442;-85
2021/08/01 00:35:03;;;;;;;12.90;6.07;;;;;;;;;;10459546;28;20028;-85
2021/08/01 00:40:05;;;;;;;9.70;4.93;;;;;;;;;;10461067;28;20029;-85
2021/08/01 00:45:07;;;;;;;10.45;5.20;;;;;;;;;;10460846;28;20037;-84
2021/08/01 00:50:08;;;;;;;9.38;5.47;;;;;;;;;;10460564;28;20048;-85
2021/08/01 00:55:10;;;;;;;8.25;6.00;;;;;;;;;;10460310;28;20056;-86
2021/08/01 01:00:18;;;;;;;8.50;6.20;;;;;;;;;;10418023;28;20033;-85
2021/08/01 01:05:24;;;;;;;6.90;5.10;;;;;;;;;;10420621;28;20083;-85
2021/08/01 01:10:45;;;;;;;11.23;5.15;;;;;;;;;;10459147;28;20118;-82
2021/08/01 01:15:47;;;;;;;12.75;6.50;;;;;;;;;;10458941;28;20037;-82
2021/08/01 01:21:15;;;;;;;9.75;5.88;;;;;;;;;;10416765;28;20041;-83
2021/08/01 01:26:19;;;;;;;11.70;5.60;;;;;;;;;;10424148;28;20032;-82
2021/08/01 01:31:48;;;;;;;9.77;5.28;;;;;;;;;;10458334;28;20025;-82
2021/08/01 01:36:49;;;;;;;9.35;5.55;;;;;;;;;;10458505;28;20094;-81
2021/08/01 01:41:50;;;;;;;11.10;5.65;;;;;;;;;;10457833;28;20033;-81
2021/08/01 01:46:51;;;;;;;10.23;5.60;;;;;;;;;;10458008;28;20064;-83
2021/08/01 01:51:53;;;;;;;8.80;5.60;;;;;;;;;;10457026;28;20029;-83
2021/08/01 01:56:53;;;;;;;7.55;5.65;;;;;;;;;;10456708;28;20115;-80
2021/08/01 02:01:54;;;;;;;10.20;5.40;;;;;;;;;;10456221;28;20119;-81
2021/08/01 02:06:54;;;;;;;8.03;6.20;;;;;;;;;;10455510;28;20087;-81
2021/08/01 02:12:07;;;;;;;8.80;5.97;;;;;;;;;;10457450;28;20055;-81
2021/08/01 02:17:11;;;;;;;8.23;6.25;;;;;;;;;;10457489;28;20473;-81
2021/08/01 02:22:12;;;;;;;8.95;5.88;;;;;;;;;;10456061;28;20166;-80
2021/08/01 02:27:12;;;;;;;8.85;5.45;;;;;;;;;;10455296;28;20033;-82
2021/08/01 02:32:13;;;;;;;9.83;5.80;;;;;;;;;;10455836;28;20112;-80
2021/08/01 02:37:14;;;;;;;10.55;6.20;;;;;;;;;;10456043;28;20534;-81
2021/08/01 02:42:15;;;;;;;6.75;5.22;;;;;;;;;;10456129;28;20466;-81
2021/08/01 02:47:18;;;;;;;8.30;4.93;;;;;;;;;;10454743;28;20044;-81
2021/08/01 02:52:29;;;;;;;6.93;5.13;;;;;;;;;;10455558;28;20040;-80
2021/08/01 02:57:31;;;;;;;9.20;6.00;;;;;;;;;;10455235;28;20422;-80
2021/08/01 03:02:32;;;;;;;12.30;5.65;;;;;;;;;;10455162;28;20514;-82
2021/08/01 03:07:33;;;;;;;8.10;4.93;;;;;;;;;;10455368;28;20074;-81
2021/08/01 03:12:40;;;;;;;5.45;4.70;;;;;;;;;;10455827;28;20037;-82
2021/08/01 03:17:41;;;;;;;8.48;4.80;;;;;;;;;;10455336;28;20410;-82
2021/08/01 03:22:42;;;;;;;12.15;4.30;;;;;;;;;;10454904;28;20090;-82
2021/08/01 03:27:42;;;;;;;5.87;4.17;;;;;;;;;;10455116;28;20064;-82
2021/08/01 03:32:43;;;;;;;7.05;4.65;;;;;;;;;;10455270;28;20029;-82
2021/08/01 03:37:43;;;;;;;5.17;4.30;;;;;;;;;;10455101;28;20459;-80
2021/08/01 03:42:43;;;;;;;8.83;4.90;;;;;;;;;;10455271;28;20473;-79
2021/08/01 03:47:44;;;;;;;8.70;5.60;;;;;;;;;;10456557;28;20053;-81
2021/08/01 03:52:44;;;;;;;17.27;4.70;;;;;;;;;;10462229;28;20155;-81
2021/08/01 03:57:45;;;;;;;6.80;4.40;;;;;;;;;;10461890;28;20112;-81
2021/08/01 04:02:45;;;;;;;10.02;5.22;;;;;;;;;;10462468;28;20037;-81
2021/08/01 04:07:45;;;;;;;8.57;4.73;;;;;;;;;;10468898;22;20048;-79
2021/08/01 04:12:46;;;;;;;8.23;5.90;;;;;;;;;;10461677;28;20036;-82
2021/08/01 04:17:46;;;;;;;10.77;6.07;;;;;;;;;;10461897;28;20052;-82
2021/08/01 04:22:51;;;;;;;9.80;6.90;;;;;;;;;;10462002;28;20462;-82
2021/08/01 04:27:53;;;;;;;11.73;5.80;;;;;;;;;;10461685;28;20036;-82
2021/08/01 04:32:53;;;;;;;8.50;6.28;;;;;;;;;;10460267;28;20386;-82
2021/08/01 04:37:54;;;;;;;14.87;6.23;;;;;;;;;;10460297;28;20025;-82
2021/08/01 04:42:54;;;;;;;8.00;6.07;;;;;;;;;;10459647;28;20803;-82
2021/08/01 04:47:54;;;;;;;17.63;6.63;;;;;;;;;;10459574;28;20052;-82
2021/08/01 04:52:55;;;;;;;13.67;6.47;;;;;;;;;;10500052;28;20032;-82
2021/08/01 04:57:55;;;;;;;10.53;5.80;;;;;;;;;;10502089;28;20035;-82
2021/08/01 05:03:01;;;;;;;9.63;6.80;;;;;;;;;;10461008;28;20056;-81
2021/08/01 05:08:02;;;;;;;12.88;7.85;;;;;;;;;;10458172;28;20045;-83
2021/08/01 05:13:06;;;;;;;11.00;7.20;;;;;;;;;;10459326;28;20040;-84
2021/08/01 05:18:07;;;;;;;9.02;6.72;;;;;;;;;;10459177;28;20024;-85
2021/08/01 05:23:07;;;;;;;10.17;6.60;;;;;;;;;;10473128;28;20483;-84
2021/08/01 05:28:08;;;;;;;12.43;7.15;;;;;;;;;;10458306;28;20430;-84
2021/08/01 05:33:09;;;;;;;12.50;6.63;;;;;;;;;;10459104;28;20029;-84
2021/08/01 05:38:10;;;;;;;11.32;6.43;;;;;;;;;;10458799;28;20029;-85
2021/08/01 05:43:10;;;;;;;7.77;6.13;;;;;;;;;;10499785;28;20451;-83
2021/08/01 05:48:11;;;;;;;10.68;5.70;;;;;;;;;;10472992;28;20450;-84
2021/08/01 05:53:11;;;;;;;8.63;5.80;;;;;;;;;;10458336;28;20376;-84
2021/08/01 05:58:11;;;;;;;7.77;4.93;;;;;;;;;;10458578;28;20033;-81
2021/08/01 06:03:12;;;;;;;9.73;5.70;;;;;;;;;;10472361;28;20064;-81
2021/08/01 06:08:12;;;;;;;5.93;4.67;;;;;;;;;;10499672;28;20102;-81
2021/08/01 06:13:13;;;;;;;9.70;5.37;;;;;;;;;;10483860;28;20537;-81
2021/08/01 06:18:13;;;;;;;14.17;5.83;;;;;;;;;;10457388;28;20040;-81
2021/08/01 06:23:13;;;;;;;14.93;5.70;;;;;;;;;;10457847;28;20116;-84
2021/08/01 06:28:14;;;;;;;7.33;5.77;;;;;;;;;;10457321;28;20036;-83
2021/08/01 06:33:14;;;;;;;13.20;6.70;;;;;;;;;;10470183;28;20031;-83
2021/08/01 06:38:14;;;;;;;10.27;6.03;;;;;;;;;;10497483;28;20040;-83
2021/08/01 06:43:15;;;;;;;10.80;6.23;;;;;;;;;;10484569;28;20025;-83
2021/08/01 06:48:15;;;;;;;12.95;5.97;;;;;;;;;;10456021;28;20109;-83
2021/08/01 06:53:16;;;;;;;7.47;5.90;;;;;;;;;;10468694;28;20032;-85
2021/08/01 06:58:20;;;;;;;9.27;5.20;;;;;;;;;;10497233;28;20033;-84
2021/08/01 07:03:21;;;;;;;10.57;6.35;;;;;;;;;;10482448;28;20029;-84
2021/08/01 07:08:21;;;;;;;11.80;5.72;;;;;;;;;;10456428;28;20049;-84
2021/08/01 07:13:21;;;;;;;8.87;5.30;;;;;;;;;;10469191;28;20083;-84
2021/08/01 07:18:22;;;;;;;7.82;5.43;;;;;;;;;;10460810;28;21032;-83
2021/08/01 07:23:22;;;;;;;9.77;5.60;;;;;;;;;;10458296;28;20041;-81
2021/08/01 07:28:23;;;;;;;7.73;5.17;;;;;;;;;;10498282;28;20040;-81
2021/08/01 07:33:23;;;;;;;7.10;5.63;;;;;;;;;;10497695;28;20815;-81
2021/08/01 07:38:24;;;;;;;10.48;5.43;;;;;;;;;;10504573;28;20044;-81
2021/08/01 07:43:25;;;;;;;13.68;5.78;;;;;;;;;;10458415;28;20037;-81
2021/08/01 07:48:25;;;;;;;6.50;5.33;;;;;;;;;;10446110;28;20136;-82
2021/08/01 07:53:25;;;;;;;9.63;5.27;;;;;;;;;;10461743;28;20036;-81
2021/08/01 07:58:26;;;;;;;12.13;5.50;;;;;;;;;;10451074;28;20031;-81
2021/08/01 08:03:26;;;;;;;12.80;5.17;;;;;;;;;;10471960;28;20029;-81
2021/08/01 08:08:26;;;;;;;5.77;4.70;;;;;;;;;;10461632;28;20525;-81
2021/08/01 08:13:27;;;;;;;11.87;5.27;;;;;;;;;;10459885;28;20454;-81
2021/08/01 08:18:27;;;;;;;10.53;6.23;;;;;;;;;;10446391;28;20061;-82
2021/08/01 08:23:28;;;;;;;7.53;5.43;;;;;;;;;;10461475;28;20412;-81
2021/08/01 08:28:28;;;;;;;8.07;5.50;;;;;;;;;;10460985;28;20032;-81
2021/08/01 08:33:29;;;;;;;9.47;5.63;;;;;;;;;;10459995;28;20061;-80
2021/08/01 08:38:29;;;;;;;7.47;5.70;;;;;;;;;;10459842;28;20446;-81
2021/08/01 08:43:30;;;;;;;12.25;7.28;;;;;;;;;;10453383;28;20040;-81
2021/08/01 08:48:31;;;;;;;13.47;5.93;;;;;;;;;;10455438;28;20071;-81
2021/08/01 08:53:32;;;;;;;8.75;6.15;;;;;;;;;;10454534;28;20029;-81
2021/08/01 08:58:33;;;;;;;12.15;6.70;;;;;;;;;;10458846;28;20032;-80
2021/08/01 09:03:33;;;;;;;11.43;6.28;;;;;;;;;;10462476;28;20541;-81
2021/08/01 09:08:34;;;;;;;11.73;7.15;;;;;;;;;;10457500;28;20057;-80
2021/08/01 09:13:54;;;;;;;9.00;6.32;;;;;;;;;;10458191;28;20490;-81
2021/08/01 09:18:54;;;;;;;10.38;7.30;;;;;;;;;;10419047;28;20047;-81
2021/08/01 09:23:54;;;;;;;9.97;6.67;;;;;;;;;;10457171;28;20037;-80
2021/08/01 09:29:03;;;;;;;10.97;8.30;;;;;;;;;;10452396;28;20836;-81
2021/08/01 09:34:25;;;;;;;11.48;7.45;;;;;;;;;;10449044;28;20033;-81
2021/08/01 09:39:26;;;;;;;11.70;7.80;;;;;;;;;;10449009;28;20037;-80
2021/08/01 09:44:27;;;;;;;14.20;7.03;;;;;;;;;;10448648;28;20115;-81
2021/08/01 09:49:31;;;;;;;11.15;6.82;;;;;;;;;;10431610;28;20111;-81
2021/08/01 09:54:46;;;;;;;10.52;6.78;;;;;;;;;;10446218;28;20057;-82
2021/08/01 09:59:48;;;;;;;9.77;6.75;;;;;;;;;;10452134;28;20075;-81
2021/08/01 10:04:48;;;;;;;14.68;6.72;;;;;;;;;;10449588;28;20025;-81
2021/08/01 10:09:48;;;;;;;11.80;6.83;;;;;;;;;;10450445;28;20094;-81
2021/08/01 10:14:49;;;;;;;8.60;6.10;;;;;;;;;;10449191;28;20517;-81
2021/08/01 10:19:50;;;;;;;10.05;6.15;;;;;;;;;;10448987;28;20054;-81
2021/08/01 10:24:54;;;;;;;17.57;6.80;;;;;;;;;;10444381;28;20037;-81
2021/08/01 10:29:55;;;;;;;10.77;6.25;;;;;;;;;;10445576;28;20523;-81
2021/08/01 10:35:12;;;;;;;11.73;5.70;;;;;;;;;;10446782;28;20086;-81
2021/08/01 10:40:18;;;;;;;9.68;5.63;;;;;;;;;;10437183;28;20037;-81
2021/08/01 10:45:19;;;;;;;4.82;2.33;;;;;;;;;;10455165;28;20029;-82
2021/08/01 10:50:25;;;;;;;4.70;2.22;;;;;;;;;;10447048;28;20436;-81
2021/08/01 10:55:25;;;;;;;8.50;3.03;;;;;;;;;;10444776;28;20048;-81
2021/08/01 11:00:54;;;;;;;4.97;2.37;;;;;;;;;;10461855;28;20033;-81
2021/08/01 11:05:55;;;;;;;3.90;2.47;;;;;;;;;;10437878;28;20465;-81
2021/08/01 11:11:16;;;;;;;3.90;2.53;;;;;;;;;;10464325;28;20052;-82
2021/08/01 11:16:41;;;;;;;4.28;2.53;;;;;;;;;;10463281;28;20029;-81
2021/08/01 11:21:42;;;;;;;3.42;2.38;;;;;;;;;;10463713;28;20469;-81
2021/08/01 11:27:12;;;;;;;4.25;2.63;;;;;;;;;;10463414;28;20208;-81
2021/08/01 11:32:12;;;;;;;3.45;2.67;;;;;;;;;;10454300;28;20044;-81
2021/08/01 11:37:18;;;;;;;3.90;2.87;;;;;;;;;;10461816;28;20170;-82
2021/08/01 11:42:28;;;;;;;3.42;2.55;;;;;;;;;;10462924;28;20451;-82
2021/08/01 11:47:41;;;;;;;5.22;3.05;;;;;;;;;;10457898;28;20040;-82
2021/08/01 11:52:45;;;;;;;6.25;3.00;;;;;;;;;;10460348;28;20033;-82
2021/08/01 11:57:49;;;;;;;8.00;2.70;;;;;;;;;;10455193;28;20459;-82
2021/08/01 12:02:54;;;;;;;5.97;2.97;;;;;;;;;;10448938;28;20033;-82
2021/08/01 12:07:55;;;;;;;6.45;2.88;;;;;;;;;;10460160;28;20052;-82
2021/08/01 12:12:59;;;;;;;5.60;3.23;;;;;;;;;;10458551;28;20032;-81
2021/08/01 12:17:59;;;;;;;4.75;2.70;;;;;;;;;;10461075;28;20025;-80
2021/08/01 12:23:00;;;;;;;5.43;2.60;;;;;;;;;;10453353;28;20494;-80
2021/08/01 12:28:00;;;;;;;4.95;3.08;;;;;;;;;;10459645;28;20029;-80
2021/08/01 12:33:03;;;;;;;5.67;2.93;;;;;;;;;;10461041;28;20112;-80
2021/08/01 12:38:05;;;;;;;4.90;3.05;;;;;;;;;;10446118;28;20055;-80
2021/08/01 12:43:11;;;;;;;3.63;2.60;;;;;;;;;;10460515;28;20031;-80
2021/08/01 12:48:20;;;;;;;2.97;2.60;;;;;;;;;;10456468;28;20021;-79
2021/08/01 12:53:22;;;;;;;3.40;2.58;;;;;;;;;;10441607;28;20061;-79
2021/08/01 12:58:36;;;;;;;4.10;2.90;;;;;;;;;;10448516;28;20124;-80
2021/08/01 13:03:42;;;;;;;3.40;2.72;;;;;;;;;;10454439;28;20036;-80
2021/08/01 13:08:47;;;;;;;4.55;2.65;;;;;;;;;;10455062;28;20076;-79
2021/08/01 13:14:04;;;;;;;13.38;2.83;;;;;;;;;;10459008;28;20251;-80
2021/08/01 13:19:12;;;;;;;6.00;2.75;;;;;;;;;;10447143;28;20036;-80
2021/08/01 13:24:14;;;;;;;2.95;2.50;;;;;;;;;;10458467;28;20131;-80
2021/08/01 13:29:22;;;;;;;3.13;2.38;;;;;;;;;;10457427;28;20032;-79
2021/08/01 13:34:35;;;;;;;3.75;2.55;;;;;;;;;;10451521;28;20100;-79
2021/08/01 13:39:38;;;;;;;4.43;2.50;;;;;;;;;;10450972;28;20051;-79
2021/08/01 13:44:45;;;;;;;2.85;2.42;;;;;;;;;;10458128;28;20037;-80
2021/08/01 13:49:47;;;;;;;3.92;2.55;;;;;;;;;;10437349;28;20375;-79
2021/08/01 13:54:50;;;;;;;3.05;2.28;;;;;;;;;;10457942;28;20458;-81
2021/08/01 13:59:52;;;;;;;4.07;2.08;;;;;;;;;;10458036;28;20043;-79
2021/08/01 14:04:53;;;;;;;4.88;2.78;;;;;;;;;;10454139;28;20048;-79
2021/08/01 14:09:57;;;;;;;3.38;2.50;;;;;;;;;;10447510;28;20494;-81
2021/08/01 14:14:58;;;;;;;2.90;2.53;;;;;;;;;;10456535;28;20076;-80
2021/08/01 14:19:58;;;;;;;2.60;2.40;;;;;;;;;;10456705;28;20060;-80
2021/08/01 14:24:58;;;;;;;3.67;2.57;;;;;;;;;;10442315;28;20442;-80
2021/08/01 14:30:00;;;;;;;3.47;2.47;;;;;;;;;;10457719;28;20029;-80
2021/08/01 14:35:03;;;;;;;2.45;2.25;;;;;;;;;;10455704;28;20546;-81
2021/08/01 14:40:04;;;;;;;2.40;2.20;;;;;;;;;;10456256;28;20044;-80
2021/08/01 14:45:06;;;;;;;3.30;2.20;;;;;;;;;;10455784;28;20086;-80
2021/08/01 14:50:17;;;;;;;6.95;2.78;;;;;;;;;;10442190;28;20075;-80
2021/08/01 14:55:17;;;;;;;3.13;2.47;;;;;;;;;;10456225;28;20128;-81
2021/08/01 15:00:19;;;;;;;2.40;2.20;;;;;;;;;;10456244;28;20558;-80
2021/08/01 15:05:56;;;;;;;5.65;2.30;;;;;;;;;;10455440;28;20028;-79
2021/08/01 15:11:04;;;;;;;3.38;2.20;;;;;;;;;;10456238;28;20127;-80
2021/08/01 15:16:07;;;;;;;2.83;2.10;;;;;;;;;;10456265;28;20043;-80
2021/08/01 15:21:14;;;;;;;3.40;2.28;;;;;;;;;;10455009;28;20041;-80
2021/08/01 15:26:16;;;;;;;2.25;2.05;;;;;;;;;;10454734;28;20036;-80
2021/08/01 15:31:18;;;;;;;2.72;2.50;;;;;;;;;;10453616;28;20055;-80
2021/08/01 15:36:18;;;;;;;2.20;2.00;;;;;;;;;;10455783;28;20032;-81
2021/08/01 15:41:19;;;;;;;2.50;2.00;;;;;;;;;;10455001;28;20512;-80
2021/08/01 15:46:19;;;;;;;2.85;2.13;;;;;;;;;;10462092;28;20040;-80
2021/08/01 15:51:28;;;;;;;2.90;2.33;;;;;;;;;;10438720;28;20028;-80
2021/08/01 15:56:35;;;;;;;2.33;2.10;;;;;;;;;;10463340;28;20143;-80
2021/08/01 16:01:39;;;;;;;2.63;2.20;;;;;;;;;;10460758;28;20029;-80
2021/08/01 16:06:43;;;;;;;3.00;2.30;;;;;;;;;;10460202;23;20021;-80
2021/08/01 16:11:49;;;;;;;2.70;2.17;;;;;;;;;;10339174;28;20034;-80
2021/08/01 16:17:09;;;;;;;2.67;2.00;;;;;;;;;;10338669;28;20030;-80
2021/08/01 16:22:10;;;;;;;2.42;2.17;;;;;;;;;;10337069;28;20041;-79
2021/08/01 16:27:11;;;;;;;2.63;2.25;;;;;;;;;;10338744;28;20037;-80
2021/08/01 16:32:11;;;;;;;3.70;2.10;;;;;;;;;;10338988;28;20026;-79
2021/08/01 16:37:12;;;;;;;2.45;2.10;;;;;;;;;;10336467;28;20033;-79
2021/08/01 16:42:22;;;;;;;2.30;2.00;;;;;;;;;;10338400;28;20042;-80
2021/08/01 16:47:45;;;;;;;2.20;2.00;;;;;;;;;;10336997;28;20023;-82
2021/08/01 16:53:04;;;;;;;2.30;2.10;;;;;;;;;;10341781;28;20034;-82
2021/08/01 16:58:19;;;;;;;3.90;2.20;;;;;;;;;;10337253;28;20030;-82
2021/08/01 17:03:29;;;;;;;2.08;1.88;;;;;;;;;;10336981;28;20113;-83
2021/08/01 17:08:54;;;;;;;3.08;2.13;;;;;;;;;;10336176;28;20397;-81
2021/08/01 17:13:57;;;;;;;2.63;2.15;;;;;;;;;;10332061;28;20046;-82
2021/08/01 17:19:00;;;;;;;5.68;2.35;;;;;;;;;;10336508;28;20097;-82
2021/08/01 17:24:00;;;;;;;3.88;2.20;;;;;;;;;;10337421;28;20381;-82
2021/08/01 17:29:02;;;;;;;2.83;2.10;;;;;;;;;;10336516;28;20026;-82
2021/08/01 17:34:09;;;;;;;3.05;2.30;;;;;;;;;;10336204;28;20034;-82
2021/08/01 17:39:10;;;;;;;2.90;2.20;;;;;;;;;;10334913;28;20026;-82
2021/08/01 17:44:12;;;;;;;2.47;1.93;;;;;;;;;;10335320;28;20034;-82
2021/08/01 17:49:13;;;;;;;4.28;2.78;;;;;;;;;;10335054;28;20954;-82
2021/08/01 17:54:13;;;;;;;2.20;1.80;;;;;;;;;;10335649;28;20034;-82
2021/08/01 17:59:15;;;;;;;2.53;2.30;;;;;;;;;;10334561;28;20041;-82
2021/08/01 18:04:16;;;;;;;2.72;2.13;;;;;;;;;;10334010;28;20034;-82
2021/08/01 18:09:20;;;;;;;2.57;2.33;;;;;;;;;;10334372;28;20069;-82
2021/08/01 18:14:28;;;;;;;2.10;1.88;;;;;;;;;;10333358;28;20035;-83
2021/08/01 18:19:29;;;;;;;3.45;2.00;;;;;;;;;;10348151;28;20044;-80
2021/08/01 18:24:34;;;;;;;2.28;1.70;;;;;;;;;;10334188;28;20492;-80
2021/08/01 18:29:35;;;;;;;2.20;2.00;;;;;;;;;;10333820;28;20097;-81
2021/08/01 18:34:35;;;;;;;2.20;2.00;;;;;;;;;;10334206;28;20026;-82
2021/08/01 18:39:37;;;;;;;3.72;2.20;;;;;;;;;;10332321;28;20026;-82
2021/08/01 18:44:58;;;;;;;2.55;2.20;;;;;;;;;;10332112;28;20031;-83
2021/08/01 18:49:58;;;;;;;2.88;2.20;;;;;;;;;;10331183;28;20141;-82
2021/08/01 18:55:00;;;;;;;3.23;2.07;;;;;;;;;;10332701;28;20109;-82
2021/08/01 19:00:00;;;;;;;4.78;2.00;;;;;;;;;;10331873;28;20582;-82
2021/08/01 19:05:04;;;;;;;2.97;2.00;;;;;;;;;;10333448;28;20092;-82
2021/08/01 19:10:05;;;;;;;4.40;2.20;;;;;;;;;;10333335;28;20081;-82
2021/08/01 19:15:08;;;;;;;2.15;1.95;;;;;;;;;;10331521;28;20019;-83
2021/08/01 19:20:10;;;;;;;4.05;2.10;;;;;;;;;;10338596;28;20044;-82
2021/08/01 19:25:14;;;;;;;2.92;2.08;;;;;;;;;;10341236;28;20026;-82
2021/08/01 19:30:14;;;;;;;2.72;2.00;;;;;;;;;;10338857;28;20034;-82
2021/08/01 19:35:16;;;;;;;3.55;2.05;;;;;;;;;;10339214;28;20030;-82
2021/08/01 19:40:16;;;;;;;6.05;2.30;;;;;;;;;;10339785;28;20080;-82
2021/08/01 19:45:19;;;;;;;3.17;1.80;;;;;;;;;;10339858;28;20500;-83
2021/08/01 19:50:21;;;;;;;2.00;1.80;;;;;;;;;;10339911;28;20042;-82
2021/08/01 19:55:21;;;;;;;3.70;2.28;;;;;;;;;;10338267;28;20113;-82
2021/08/01 20:00:21;;;;;;;3.33;2.08;;;;;;;;;;10339367;28;20117;-83
2021/08/01 20:05:22;;;;;;;4.00;2.00;;;;;;;;;;10339895;28;20057;-83
2021/08/01 20:10:22;;;;;;;2.65;2.20;;;;;;;;;;10340264;28;20050;-83
2021/08/01 20:15:23;;;;;;;1.70;1.60;;;;;;;;;;10338693;28;20060;-83
2021/08/01 20:20:23;;;;;;;4.97;2.03;;;;;;;;;;10338589;28;20034;-83
2021/08/01 20:25:24;;;;;;;3.83;1.93;;;;;;;;;;10338503;28;20061;-83
2021/08/01 20:30:24;;;;;;;2.72;1.80;;;;;;;;;;10338103;28;20088;-83
2021/08/01 20:35:25;;;;;;;4.60;2.00;;;;;;;;;;10338090;28;20026;-83
2021/08/01 20:40:26;;;;;;;4.68;2.00;;;;;;;;;;10338340;28;20034;-83
2021/08/01 20:45:26;;;;;;;3.35;1.98;;;;;;;;;;10338335;28;20169;-83
2021/08/01 20:50:27;;;;;;;2.10;1.67;;;;;;;;;;10337649;28;20060;-83
2021/08/01 20:55:27;;;;;;;2.83;1.92;;;;;;;;;;10336855;28;20595;-83
2021/08/01 21:00:28;;;;;;;2.28;1.70;;;;;;;;;;10337479;28;20030;-83
2021/08/01 21:05:29;;;;;;;5.25;1.80;;;;;;;;;;10337396;28;20045;-83
2021/08/01 21:10:29;;;;;;;5.93;2.25;;;;;;;;;;10337446;28;20049;-82
2021/08/01 21:15:30;;;;;;;3.97;2.17;;;;;;;;;;10336700;28;20030;-83
2021/08/01 21:20:30;;;;;;;3.40;1.95;;;;;;;;;;10336573;28;20428;-83
2021/08/01 21:25:31;;;;;;;3.72;2.15;;;;;;;;;;10336149;28;20030;-83
2021/08/01 21:30:32;;;;;;;2.23;1.70;;;;;;;;;;10336350;28;20429;-83
2021/08/01 21:35:33;;;;;;;3.78;2.38;;;;;;;;;;10335798;28;20469;-83
2021/08/01 21:40:33;;;;;;;3.05;1.90;;;;;;;;;;10335252;28;20034;-83
2021/08/01 21:45:34;;;;;;;2.90;1.90;;;;;;;;;;10336245;28;20507;-83
2021/08/01 21:50:34;;;;;;;2.97;1.97;;;;;;;;;;10335157;28;20034;-83
2021/08/01 21:55:35;;;;;;;2.88;1.92;;;;;;;;;;10335260;28;20456;-82
2021/08/01 22:00:35;;;;;;;9.47;1.70;;;;;;;;;;10349974;28;20096;-83
2021/08/01 22:05:36;;;;;;;2.43;1.67;;;;;;;;;;10332728;28;20037;-82
2021/08/01 22:10:37;;;;;;;4.55;1.90;;;;;;;;;;10332739;28;20475;-82
2021/08/01 22:15:37;;;;;;;3.15;1.70;;;;;;;;;;10334279;28;20044;-82
2021/08/01 22:20:38;;;;;;;3.53;1.70;;;;;;;;;;10334275;28;20065;-83
2021/08/01 22:25:41;;;;;;;4.50;1.92;;;;;;;;;;10333810;28;20415;-82
2021/08/01 22:30:42;;;;;;;2.33;1.77;;;;;;;;;;10332795;28;20041;-83
2021/08/01 22:35:43;;;;;;;3.10;1.55;;;;;;;;;;10334220;28;20030;-82
2021/08/01 22:40:44;;;;;;;2.55;1.38;;;;;;;;;;10333133;28;20045;-83
2021/08/01 22:45:45;;;;;;;4.20;1.58;;;;;;;;;;10332733;28;20845;-82
2021/08/01 22:50:49;;;;;;;4.63;1.48;;;;;;;;;;10334004;28;20472;-82
2021/08/01 22:55:50;;;;;;;1.75;1.23;;;;;;;;;;10333408;28;20069;-82
2021/08/01 23:00:52;;;;;;;1.43;1.30;;;;;;;;;;10333667;28;20522;-82
2021/08/01 23:05:58;;;;;;;2.80;1.63;;;;;;;;;;10334057;28;20030;-82
2021/08/01 23:11:09;;;;;;;3.45;1.75;;;;;;;;;;10332618;28;20470;-82
2021/08/01 23:16:12;;;;;;;4.68;1.50;;;;;;;;;;10331465;28;20490;-82
2021/08/01 23:21:14;;;;;;;1.65;1.45;;;;;;;;;;10333337;28;20044;-82
2021/08/01 23:26:16;;;;;;;3.10;1.50;;;;;;;;;;10333305;28;20357;-82
2021/08/01 23:31:21;;;;;;;2.88;1.50;;;;;;;;;;10332068;28;20092;-82
2021/08/01 23:36:23;;;;;;;6.57;1.63;;;;;;;;;;10331375;28;20136;-82
2021/08/01 23:41:24;;;;;;;2.92;1.45;;;;;;;;;;10333435;28;20077;-82
2021/08/01 23:46:25;;;;;;;3.40;1.40;;;;;;;;;;10331279;28;20049;-82
2021/08/01 23:51:32;;;;;;;2.33;1.35;;;;;;;;;;10331379;28;20440;-82
2021/08/01 23:56:40;;;;;;;1.33;1.23;;;;;;;;;;10331970;28;20113;-83
